createdAt,value
2022-11-28T00:02:42.670Z,19.45
2022-11-28T00:05:47.037Z,18.53
2022-11-28T00:08:49.478Z,20.65
2022-11-28T00:11:52.073Z,19.67
2022-11-28T00:14:54.828Z,20.02
2022-11-28T00:17:57.123Z,19.27
2022-11-28T00:21:05.537Z,18.47
2022-11-28T00:24:08.344Z,18.73
2022-11-28T00:27:10.495Z,18.50
2022-11-28T00:30:12.999Z,18.55
2022-11-28T00:33:15.115Z,18.90
2022-11-28T00:36:18.075Z,17.93
2022-11-28T00:39:20.791Z,16.95
2022-11-28T00:42:23.318Z,18.27
2022-11-28T00:45:26.640Z,16.00
2022-11-28T00:48:29.515Z,17.10
2022-11-28T00:51:32.881Z,16.17
2022-11-28T00:54:36.164Z,16.25
2022-11-28T00:57:38.362Z,16.75
2022-11-28T01:00:40.571Z,16.08
2022-11-28T01:03:43.597Z,16.33
2022-11-28T01:06:50.720Z,15.03
2022-11-28T01:09:52.845Z,16.35
2022-11-28T01:12:55.053Z,16.55
2022-11-28T01:15:58.817Z,15.32
2022-11-28T01:19:01.175Z,16.17
2022-11-28T01:22:03.518Z,13.90
2022-11-28T01:25:06.021Z,14.63
2022-11-28T01:28:08.241Z,15.95
2022-11-28T01:31:12.147Z,14.00
2022-11-28T01:34:14.480Z,15.07
2022-11-28T01:37:16.619Z,13.93
2022-11-28T01:40:18.854Z,15.02
2022-11-28T01:43:22.163Z,14.10
2022-11-28T01:46:24.348Z,15.25
2022-11-28T01:49:33.559Z,14.50
2022-11-28T01:52:37.866Z,14.67
2022-11-28T01:55:53.329Z,14.75
2022-11-28T01:59:02.885Z,14.18
2022-11-28T02:02:07.885Z,14.27
2022-11-28T02:05:10.162Z,14.77
2022-11-28T02:08:12.785Z,15.17
2022-11-28T02:11:17.842Z,14.40
2022-11-28T02:14:31.183Z,14.68
2022-11-28T02:18:10.069Z,15.82
2022-11-28T02:21:42.631Z,13.85
2022-11-28T02:25:35.834Z,15.07
2022-11-28T02:29:01.722Z,15.07
2022-11-28T02:32:13.941Z,14.05
2022-11-28T02:35:24.483Z,13.85
2022-11-28T02:38:40.649Z,14.00
2022-11-28T02:42:10.202Z,13.57
2022-11-28T02:45:37.267Z,12.70
2022-11-28T02:49:01.756Z,12.95
2022-11-28T02:52:08.497Z,13.57
2022-11-28T02:55:11.671Z,12.27
2022-11-28T02:58:13.785Z,12.27
2022-11-28T03:01:30.341Z,12.55
2022-11-28T03:04:39.554Z,13.10
2022-11-28T03:08:02.923Z,12.65
2022-11-28T03:11:13.954Z,13.65
2022-11-28T03:14:50.937Z,14.37
2022-11-28T03:18:08.096Z,13.30
2022-11-28T03:21:14.280Z,13.00
2022-11-28T03:24:51.688Z,12.60
2022-11-28T03:28:18.955Z,12.57
2022-11-28T03:31:24.738Z,12.00
2022-11-28T03:34:33.291Z,11.70
2022-11-28T03:37:42.806Z,12.85
2022-11-28T03:40:47.423Z,11.25
2022-11-28T03:43:53.209Z,11.15
2022-11-28T03:46:57.798Z,10.47
2022-11-28T03:50:03.700Z,9.93
2022-11-28T03:53:09.950Z,10.20
2022-11-28T03:56:20.717Z,9.15
2022-11-28T03:59:24.245Z,12.25
2022-11-28T04:02:33.587Z,8.90
2022-11-28T04:05:48.746Z,10.68
2022-11-28T04:09:14.656Z,10.05
2022-11-28T04:12:23.528Z,12.18
2022-11-28T04:15:39.960Z,10.98
2022-11-28T04:19:02.476Z,11.37
2022-11-28T04:22:32.836Z,10.77
2022-11-28T04:25:37.994Z,10.60
2022-11-28T04:28:40.935Z,11.98
2022-11-28T04:31:44.893Z,12.30
2022-11-28T04:34:51.077Z,12.53
2022-11-28T04:37:54.760Z,13.75
2022-11-28T04:41:11.009Z,11.80
2022-11-28T04:44:18.572Z,12.98
2022-11-28T04:47:22.339Z,11.65
2022-11-28T04:50:29.036Z,11.67
2022-11-28T04:53:33.964Z,11.00
2022-11-28T04:57:01.421Z,11.50
2022-11-28T05:00:07.294Z,11.07
2022-11-28T05:03:10.049Z,11.10
2022-11-28T05:06:24.029Z,10.77
2022-11-28T05:09:26.196Z,11.48
2022-11-28T05:12:28.338Z,12.70
2022-11-28T05:15:30.574Z,11.60
2022-11-28T05:18:33.008Z,12.00
2022-11-28T05:21:35.233Z,12.70
2022-11-28T05:24:37.511Z,12.20
2022-11-28T05:27:39.689Z,12.45
2022-11-28T05:30:41.788Z,12.38
2022-11-28T05:33:44.018Z,14.00
2022-11-28T05:36:47.323Z,13.40
2022-11-28T05:39:49.693Z,13.18
2022-11-28T05:42:52.052Z,12.98
2022-11-28T05:45:54.324Z,14.38
2022-11-28T05:48:56.869Z,13.15
2022-11-28T05:51:59.116Z,12.33
2022-11-28T05:55:01.688Z,12.35
2022-11-28T05:58:03.975Z,13.93
2022-11-28T06:01:10.469Z,14.38
2022-11-28T06:04:12.701Z,14.60
2022-11-28T06:07:14.940Z,15.90
2022-11-28T06:10:17.459Z,15.27
2022-11-28T06:13:19.577Z,14.85
2022-11-28T06:16:24.322Z,15.63
2022-11-28T06:19:26.571Z,17.27
2022-11-28T06:22:29.409Z,20.87
2022-11-28T06:25:31.867Z,19.38
2022-11-28T06:28:34.522Z,16.92
2022-11-28T06:31:37.353Z,18.90
2022-11-28T06:34:39.498Z,22.60
2022-11-28T06:37:41.697Z,18.80
2022-11-28T06:40:43.833Z,16.25
2022-11-28T06:43:47.337Z,16.02
2022-11-28T06:46:49.707Z,15.55
2022-11-28T06:49:51.870Z,12.98
2022-11-28T06:52:57.198Z,17.00
2022-11-28T06:56:05.796Z,15.15
2022-11-28T06:59:08.014Z,15.55
2022-11-28T07:02:11.344Z,14.35
2022-11-28T07:05:16.525Z,16.50
2022-11-28T07:08:18.722Z,12.20
2022-11-28T07:11:23.643Z,15.02
2022-11-28T07:14:26.230Z,15.02
2022-11-28T07:17:28.365Z,16.58
2022-11-28T07:20:30.462Z,13.50
2022-11-28T07:23:32.647Z,14.73
2022-11-28T07:26:38.026Z,11.90
2022-11-28T07:29:40.471Z,14.90
2022-11-28T07:32:42.728Z,15.48
2022-11-28T07:35:44.882Z,15.88
2022-11-28T07:38:51.656Z,13.27
2022-11-28T07:41:53.792Z,11.75
2022-11-28T07:44:56.807Z,13.63
2022-11-28T07:47:59.215Z,11.73
2022-11-28T07:51:05.928Z,14.77
2022-11-28T07:54:08.549Z,15.07
2022-11-28T07:57:12.409Z,12.23
2022-11-28T08:00:15.849Z,13.55
2022-11-28T08:03:17.971Z,17.08
2022-11-28T08:06:22.656Z,12.88
2022-11-28T08:09:24.926Z,17.17
2022-11-28T08:12:27.088Z,13.95
2022-11-28T08:15:31.745Z,10.65
2022-11-28T08:18:36.832Z,11.82
2022-11-28T08:21:39.819Z,19.65
2022-11-28T08:24:42.566Z,17.90
2022-11-28T08:27:45.320Z,13.63
2022-11-28T08:30:47.542Z,16.88
2022-11-28T08:33:51.355Z,12.85
2022-11-28T08:36:53.574Z,12.98
2022-11-28T08:39:55.961Z,12.03
2022-11-28T08:42:58.739Z,10.85
2022-11-28T08:46:01.536Z,13.13
2022-11-28T08:49:04.744Z,8.13
2022-11-28T08:52:07.151Z,11.25
2022-11-28T08:55:09.592Z,9.23
2022-11-28T08:58:12.444Z,7.82
2022-11-28T09:01:16.553Z,6.70
2022-11-28T09:04:18.960Z,12.10
2022-11-28T09:07:21.182Z,9.68
2022-11-28T09:10:24.910Z,12.17
2022-11-28T09:13:27.044Z,11.70
2022-11-28T09:16:29.533Z,13.57
2022-11-28T09:19:33.163Z,18.05
2022-11-28T09:22:35.326Z,11.98
2022-11-28T09:25:38.883Z,11.23
2022-11-28T09:28:41.194Z,13.27
2022-11-28T09:31:47.329Z,11.65
2022-11-28T09:34:51.227Z,13.10
2022-11-28T09:37:53.358Z,13.18
2022-11-28T09:40:55.498Z,14.07
2022-11-28T09:44:02.808Z,13.32
2022-11-28T09:47:12.586Z,13.50
2022-11-28T09:50:26.073Z,15.63
2022-11-28T09:53:39.401Z,13.70
2022-11-28T09:56:41.635Z,12.87
2022-11-28T09:59:44.256Z,13.32
2022-11-28T10:03:01.620Z,11.73
2022-11-28T10:06:03.700Z,16.33
2022-11-28T10:09:05.813Z,24.25
2022-11-28T10:12:37.003Z,17.73
2022-11-28T10:15:54.087Z,11.40
2022-11-28T10:19:00.444Z,10.68
2022-11-28T10:22:05.377Z,11.45
2022-11-28T10:25:29.465Z,11.10
2022-11-28T10:28:36.585Z,10.40
2022-11-28T10:31:44.436Z,9.65
2022-11-28T10:34:53.584Z,8.35
2022-11-28T10:37:56.270Z,10.40
2022-11-28T10:41:01.926Z,11.23
2022-11-28T10:44:19.977Z,14.20
2022-11-28T10:47:48.469Z,13.55
2022-11-28T10:51:22.935Z,13.82
2022-11-28T10:54:31.019Z,12.80
2022-11-28T10:57:41.868Z,11.93
2022-11-28T11:00:45.533Z,10.83
2022-11-28T11:03:48.211Z,13.60
2022-11-28T11:07:09.442Z,11.63
2022-11-28T11:10:19.536Z,9.32
2022-11-28T11:13:27.184Z,16.48
2022-11-28T11:16:59.349Z,16.63
2022-11-28T11:20:01.584Z,9.30
2022-11-28T11:23:13.933Z,10.02
2022-11-28T11:26:25.649Z,12.90
2022-11-28T11:29:35.612Z,14.50
2022-11-28T11:32:38.569Z,16.73
2022-11-28T11:35:46.235Z,14.38
2022-11-28T11:38:48.465Z,11.35
2022-11-28T11:42:10.237Z,10.95
2022-11-28T11:45:41.443Z,11.80
2022-11-28T11:48:48.478Z,11.37
2022-11-28T11:52:00.054Z,13.13
2022-11-28T11:55:07.412Z,10.73
2022-11-28T11:58:12.491Z,12.45
2022-11-28T12:01:16.340Z,13.85
2022-11-28T12:04:52.507Z,10.80
2022-11-28T12:08:02.481Z,10.20
2022-11-28T12:11:28.439Z,12.98
2022-11-28T12:14:38.745Z,12.93
2022-11-28T12:18:13.167Z,11.95
2022-11-28T12:21:56.418Z,13.70
2022-11-28T12:25:10.447Z,10.50
2022-11-28T12:28:32.501Z,19.38
2022-11-28T12:31:37.583Z,11.05
2022-11-28T12:35:01.387Z,10.77
2022-11-28T12:38:40.488Z,18.57
2022-11-28T12:42:01.791Z,11.75
2022-11-28T12:45:09.587Z,10.50
2022-11-28T12:48:53.410Z,10.05
2022-11-28T12:52:21.241Z,10.00
2022-11-28T12:55:34.468Z,10.97
2022-11-28T12:58:41.318Z,10.18
2022-11-28T13:01:59.099Z,8.10
2022-11-28T13:05:19.904Z,9.70
2022-11-28T13:08:46.517Z,9.85
2022-11-28T13:12:20.633Z,11.50
2022-11-28T13:15:43.197Z,9.75
2022-11-28T13:18:49.964Z,10.75
2022-11-28T13:22:13.145Z,10.70
2022-11-28T13:25:33.666Z,10.50
2022-11-28T13:28:49.810Z,10.17
2022-11-28T13:32:02.393Z,10.20
2022-11-28T13:35:05.578Z,10.95
2022-11-28T13:42:21.520Z,10.73
2022-11-28T13:45:32.773Z,9.60
2022-11-28T13:49:13.300Z,10.10
2022-11-28T13:52:17.385Z,9.10
2022-11-28T13:55:44.829Z,10.20
2022-11-28T13:58:54.304Z,10.63
2022-11-28T14:02:01.424Z,10.57
2022-11-28T14:05:04.798Z,11.30
2022-11-28T14:08:07.487Z,11.40
2022-11-28T14:11:51.365Z,11.05
2022-11-28T14:15:02.414Z,11.55
2022-11-28T14:18:54.518Z,11.70
2022-11-28T14:22:20.809Z,10.48
2022-11-28T14:25:34.236Z,10.88
2022-11-28T14:28:40.174Z,10.68
2022-11-28T14:32:06.542Z,11.55
2022-11-28T14:35:21.023Z,11.20
2022-11-28T14:38:35.606Z,11.02
2022-11-28T14:42:04.283Z,11.75
2022-11-28T14:45:41.573Z,10.10
2022-11-28T14:48:58.959Z,11.52
2022-11-28T14:55:42.589Z,10.75
2022-11-28T14:58:48.935Z,11.48
2022-11-28T15:02:13.202Z,11.77
2022-11-28T15:05:30.265Z,11.82
2022-11-28T15:08:41.510Z,10.87
2022-11-28T15:12:11.602Z,11.32
2022-11-28T15:15:17.044Z,11.25
2022-11-28T15:18:21.041Z,12.13
2022-11-28T15:21:23.224Z,11.32
2022-11-28T15:24:28.200Z,11.67
2022-11-28T15:27:30.841Z,10.38
2022-11-28T15:30:33.553Z,14.65
2022-11-28T15:33:35.728Z,15.10
2022-11-28T15:36:39.438Z,17.42
2022-11-28T15:39:42.365Z,15.90
2022-11-28T15:42:47.945Z,18.05
2022-11-28T15:45:55.031Z,13.27
2022-11-28T15:48:57.333Z,15.43
2022-11-28T15:52:01.769Z,16.92
2022-11-28T15:55:15.221Z,16.97
2022-11-28T15:58:17.593Z,17.50
2022-11-28T16:01:27.383Z,16.38
2022-11-28T16:04:30.665Z,18.98
2022-11-28T16:07:35.818Z,18.15
2022-11-28T16:10:41.360Z,18.10
2022-11-28T16:13:43.791Z,17.95
2022-11-28T16:16:46.360Z,18.23
2022-11-28T16:19:50.588Z,18.50
2022-11-28T16:23:07.975Z,19.98
2022-11-28T16:26:30.933Z,17.50
2022-11-28T16:29:35.456Z,16.13
2022-11-28T16:32:39.631Z,16.88
2022-11-28T16:35:42.018Z,15.02
2022-11-28T16:38:45.793Z,15.68
2022-11-28T16:41:55.072Z,14.60
2022-11-28T16:44:57.640Z,11.70
2022-11-28T16:48:09.132Z,16.50
2022-11-28T16:51:11.524Z,15.23
2022-11-28T16:54:29.464Z,12.48
2022-11-28T16:57:47.959Z,15.53
2022-11-28T17:01:00.069Z,16.63
2022-11-28T17:04:04.864Z,14.52
2022-11-28T17:07:12.659Z,15.10
2022-11-28T17:10:15.158Z,15.70
2022-11-28T17:13:17.842Z,14.77
2022-11-28T17:16:24.502Z,16.63
2022-11-28T17:19:29.421Z,14.70
2022-11-28T17:22:41.429Z,15.60
2022-11-28T17:25:44.014Z,14.00
2022-11-28T17:28:47.474Z,14.30
2022-11-28T17:31:50.485Z,15.63
2022-11-28T17:34:53.185Z,14.73
2022-11-28T17:37:55.990Z,17.15
2022-11-28T17:40:59.672Z,16.02
2022-11-28T17:44:02.332Z,20.63
2022-11-28T17:47:04.931Z,20.35
2022-11-28T17:50:09.656Z,15.60
2022-11-28T17:53:15.526Z,14.43
2022-11-28T17:56:18.506Z,16.15
2022-11-28T17:59:23.069Z,16.07
2022-11-28T18:02:26.066Z,17.20
2022-11-28T18:05:28.771Z,17.60
2022-11-28T18:08:34.294Z,17.25
2022-11-28T18:11:37.391Z,17.85
2022-11-28T18:14:40.255Z,16.17
2022-11-28T18:17:43.322Z,15.98
2022-11-28T18:20:46.078Z,18.77
2022-11-28T18:23:50.907Z,18.02
2022-11-28T18:26:54.863Z,19.88
2022-11-28T18:29:57.438Z,18.03
2022-11-28T18:33:00.027Z,17.55
2022-11-28T18:36:29.772Z,18.60
2022-11-28T18:39:33.464Z,16.65
2022-11-28T18:42:36.637Z,17.15
2022-11-28T18:45:39.686Z,16.97
2022-11-28T18:48:44.741Z,18.38
2022-11-28T18:51:48.867Z,19.88
2022-11-28T18:54:52.198Z,19.67
2022-11-28T18:57:54.781Z,17.38
2022-11-28T19:00:57.530Z,17.13
2022-11-28T19:04:07.061Z,16.67
2022-11-28T19:07:10.607Z,16.88
2022-11-28T19:10:13.653Z,17.25
2022-11-28T19:13:16.846Z,17.25
2022-11-28T19:16:21.978Z,16.63
2022-11-28T19:19:24.857Z,15.80
2022-11-28T19:22:27.689Z,17.73
2022-11-28T19:25:34.121Z,18.30
2022-11-28T19:28:37.978Z,17.95
2022-11-28T19:31:41.934Z,18.07
2022-11-28T19:34:44.750Z,15.90
2022-11-28T19:37:49.250Z,17.00
2022-11-28T19:40:52.208Z,17.23
2022-11-28T19:43:55.551Z,20.23
2022-11-28T19:46:58.980Z,19.87
2022-11-28T19:50:06.745Z,17.33
2022-11-28T19:53:09.633Z,22.17
2022-11-28T19:56:18.705Z,30.60
2022-11-28T19:59:21.539Z,16.80
2022-11-28T20:02:25.845Z,21.03
2022-11-28T20:05:30.890Z,19.45
2022-11-28T20:08:33.204Z,18.17
2022-11-28T20:11:36.996Z,20.70
2022-11-28T20:14:39.968Z,20.92
2022-11-28T20:17:43.027Z,21.73
2022-11-28T20:20:45.337Z,20.23
2022-11-28T20:23:56.504Z,23.45
2022-11-28T20:26:59.291Z,17.83
2022-11-28T20:30:02.612Z,18.73
2022-11-28T20:33:05.298Z,18.60
2022-11-28T20:36:10.380Z,19.17
2022-11-28T20:39:13.690Z,19.98
2022-11-28T20:42:16.470Z,20.10
2022-11-28T20:45:19.197Z,25.80
2022-11-28T20:48:21.469Z,22.30
2022-11-28T20:51:25.420Z,22.85
2022-11-28T20:54:30.184Z,22.20
2022-11-28T20:57:32.904Z,28.10
2022-11-28T21:00:45.011Z,28.27
2022-11-28T21:03:47.545Z,21.93
2022-11-28T21:06:50.495Z,26.90
2022-11-28T21:09:55.385Z,26.67
2022-11-28T21:12:57.652Z,28.23
2022-11-28T21:16:08.431Z,25.70
2022-11-28T21:19:10.996Z,25.93
2022-11-28T21:22:13.294Z,26.27
2022-11-28T21:25:15.918Z,27.55
2022-11-28T21:28:18.445Z,24.95
2022-11-28T21:31:24.546Z,24.67
2022-11-28T21:34:26.801Z,22.80
2022-11-28T21:37:29.094Z,21.88
2022-11-28T21:40:31.307Z,37.65
2022-11-28T21:43:33.443Z,25.52
2022-11-28T21:46:36.358Z,26.80
2022-11-28T21:49:38.511Z,26.37
2022-11-28T21:52:41.048Z,25.48
2022-11-28T21:55:44.580Z,26.00
2022-11-28T21:58:47.781Z,24.48
2022-11-28T22:01:50.901Z,23.42
2022-11-28T22:04:55.511Z,24.70
2022-11-28T22:07:58.657Z,23.67
2022-11-28T22:11:11.420Z,23.37
2022-11-28T22:14:14.919Z,23.67
2022-11-28T22:17:18.115Z,24.15
2022-11-28T22:20:21.208Z,22.65
2022-11-28T22:23:24.312Z,23.97
2022-11-28T22:26:26.892Z,22.20
2022-11-28T22:29:29.708Z,24.00
2022-11-28T22:32:32.148Z,24.70
2022-11-28T22:35:34.551Z,24.70
2022-11-28T22:38:37.759Z,27.33
2022-11-28T22:41:39.978Z,26.83
2022-11-28T22:44:43.039Z,27.65
2022-11-28T22:47:45.425Z,26.15
2022-11-28T22:50:47.937Z,26.90
2022-11-28T22:53:54.698Z,19.00
2022-11-28T22:56:57.545Z,18.08
2022-11-28T22:59:59.701Z,16.60
2022-11-28T23:03:02.125Z,16.00
2022-11-28T23:06:15.640Z,15.90
2022-11-28T23:09:18.415Z,15.77
2022-11-28T23:12:20.534Z,15.63
2022-11-28T23:15:22.898Z,15.45
2022-11-28T23:18:25.734Z,14.73
2022-11-28T23:21:36.090Z,14.45
2022-11-28T23:24:39.233Z,14.73
2022-11-28T23:27:41.354Z,15.05
2022-11-28T23:30:43.800Z,14.90
2022-11-28T23:33:46.745Z,14.77
2022-11-28T23:36:49.849Z,15.85
2022-11-28T23:39:52.132Z,13.90
2022-11-28T23:42:54.998Z,14.48
2022-11-28T23:45:58.028Z,15.60
2022-11-28T23:49:00.471Z,13.65
2022-11-28T23:52:02.677Z,15.18
2022-11-28T23:55:05.294Z,15.33
2022-11-28T23:58:07.694Z,14.25
